createdAt,value
2023-02-09T00:01:05.532Z,59.40
2023-02-09T00:03:34.237Z,59.83
2023-02-09T00:06:03.862Z,60.41
2023-02-09T00:08:32.441Z,61.06
2023-02-09T00:11:00.721Z,61.38
2023-02-09T00:13:28.891Z,61.72
2023-02-09T00:15:57.912Z,62.90
2023-02-09T00:18:26.511Z,64.33
2023-02-09T00:20:58.929Z,64.06
2023-02-09T00:23:28.251Z,63.51
2023-02-09T00:25:59.904Z,62.05
2023-02-09T00:28:28.192Z,61.31
2023-02-09T00:30:56.217Z,60.86
2023-02-09T00:33:24.415Z,60.55
2023-02-09T00:35:52.590Z,60.24
2023-02-09T00:38:20.522Z,59.09
2023-02-09T00:40:49.546Z,58.30
2023-02-09T00:43:17.533Z,58.21
2023-02-09T00:45:46.645Z,58.94
2023-02-09T00:48:15.925Z,59.47
2023-02-09T00:50:44.219Z,60.07
2023-02-09T00:53:12.467Z,60.68
2023-02-09T00:55:42.380Z,61.23
2023-02-09T00:58:10.563Z,61.61
2023-02-09T01:00:38.735Z,62.53
2023-02-09T01:03:06.987Z,64.10
2023-02-09T01:05:38.350Z,64.12
2023-02-09T01:08:06.419Z,63.40
2023-02-09T01:10:34.576Z,62.57
2023-02-09T01:13:02.663Z,61.77
2023-02-09T01:15:30.735Z,61.26
2023-02-09T01:17:59.373Z,61.10
2023-02-09T01:20:27.824Z,60.97
2023-02-09T01:22:55.972Z,60.61
2023-02-09T01:25:24.352Z,60.11
2023-02-09T01:27:52.303Z,59.15
2023-02-09T01:30:20.371Z,57.90
2023-02-09T01:32:48.871Z,57.88
2023-02-09T01:35:17.450Z,58.12
2023-02-09T01:37:45.361Z,58.71
2023-02-09T01:40:15.991Z,59.20
2023-02-09T01:42:43.977Z,59.65
2023-02-09T01:45:15.889Z,60.09
2023-02-09T01:47:47.364Z,60.38
2023-02-09T01:50:15.925Z,60.69
2023-02-09T01:52:45.129Z,61.10
2023-02-09T01:55:15.354Z,61.51
2023-02-09T01:57:46.487Z,62.65
2023-02-09T02:00:16.272Z,64.61
2023-02-09T02:02:48.139Z,64.70
2023-02-09T02:05:16.644Z,63.85
2023-02-09T02:07:44.604Z,62.65
2023-02-09T02:10:13.084Z,61.91
2023-02-09T02:12:43.208Z,61.29
2023-02-09T02:15:12.100Z,60.80
2023-02-09T02:17:49.585Z,60.59
2023-02-09T02:20:28.408Z,60.42
2023-02-09T02:23:11.323Z,60.37
2023-02-09T02:26:00.544Z,60.26
2023-02-09T02:28:28.689Z,59.95
2023-02-09T02:31:19.862Z,59.25
2023-02-09T02:33:57.470Z,58.02
2023-02-09T02:36:33.866Z,58.01
2023-02-09T02:39:22.332Z,58.32
2023-02-09T02:42:22.402Z,58.63
2023-02-09T02:44:56.621Z,59.05
2023-02-09T02:47:25.858Z,59.88
2023-02-09T02:49:56.665Z,60.43
2023-02-09T02:52:24.836Z,60.88
2023-02-09T02:54:57.368Z,61.38
2023-02-09T02:57:25.273Z,62.58
2023-02-09T02:59:57.241Z,64.65
2023-02-09T03:02:28.484Z,64.63
2023-02-09T03:04:58.193Z,64.19
2023-02-09T03:07:26.370Z,63.14
2023-02-09T03:09:56.494Z,62.49
2023-02-09T03:12:30.633Z,61.99
2023-02-09T03:15:18.420Z,61.54
2023-02-09T03:17:55.446Z,61.32
2023-02-09T03:20:33.483Z,60.83
2023-02-09T03:23:02.650Z,60.39
2023-02-09T03:25:33.558Z,59.32
2023-02-09T03:28:05.060Z,58.05
2023-02-09T03:30:33.951Z,57.85
2023-02-09T03:33:03.923Z,58.13
2023-02-09T03:35:36.250Z,58.80
2023-02-09T03:38:07.285Z,59.39
2023-02-09T03:40:35.407Z,59.94
2023-02-09T03:43:03.570Z,60.48
2023-02-09T03:45:31.540Z,61.17
2023-02-09T03:47:59.520Z,62.30
2023-02-09T03:50:30.043Z,64.11
2023-02-09T03:52:58.542Z,64.06
2023-02-09T03:55:26.691Z,63.51
2023-02-09T03:57:54.674Z,62.77
2023-02-09T04:00:22.711Z,62.34
2023-02-09T04:02:50.786Z,61.82
2023-02-09T04:05:19.008Z,61.56
2023-02-09T04:07:47.137Z,61.29
2023-02-09T04:10:15.126Z,61.17
2023-02-09T04:12:43.017Z,60.87
2023-02-09T04:15:11.074Z,60.49
2023-02-09T04:17:39.223Z,60.28
2023-02-09T04:20:07.713Z,60.11
2023-02-09T04:22:35.776Z,59.74
2023-02-09T04:25:03.960Z,59.24
2023-02-09T04:27:32.739Z,58.17
2023-02-09T04:30:00.681Z,58.15
2023-02-09T04:32:28.685Z,58.46
2023-02-09T04:34:56.702Z,58.98
2023-02-09T04:37:24.717Z,59.50
2023-02-09T04:39:52.683Z,60.16
2023-02-09T04:42:20.653Z,60.72
2023-02-09T04:44:48.772Z,61.21
2023-02-09T04:47:16.707Z,62.52
2023-02-09T04:49:44.763Z,65.11
2023-02-09T04:52:13.146Z,65.12
2023-02-09T04:54:41.119Z,64.26
2023-02-09T04:57:28.031Z,63.01
2023-02-09T04:59:56.230Z,62.07
2023-02-09T05:02:24.384Z,61.40
2023-02-09T05:04:52.549Z,60.95
2023-02-09T05:07:20.923Z,60.52
2023-02-09T05:09:49.197Z,60.41
2023-02-09T05:12:17.174Z,60.16
2023-02-09T05:14:45.138Z,59.33
2023-02-09T05:17:13.287Z,58.12
2023-02-09T05:19:41.383Z,58.00
2023-02-09T05:22:09.317Z,58.15
2023-02-09T05:24:37.184Z,58.93
2023-02-09T05:27:05.303Z,59.46
2023-02-09T05:29:33.261Z,59.86
2023-02-09T05:32:01.255Z,60.38
2023-02-09T05:34:29.309Z,61.08
2023-02-09T05:36:57.268Z,61.43
2023-02-09T05:39:25.213Z,61.79
2023-02-09T05:42:12.049Z,62.61
2023-02-09T05:44:40.118Z,63.67
2023-02-09T05:47:08.189Z,62.86
2023-02-09T05:49:36.258Z,62.35
2023-02-09T05:52:04.740Z,61.86
2023-02-09T05:54:32.825Z,61.37
2023-02-09T05:57:01.092Z,60.85
2023-02-09T05:59:29.158Z,60.23
2023-02-09T06:01:57.660Z,59.23
2023-02-09T06:04:26.254Z,58.07
2023-02-09T06:06:54.800Z,57.82
2023-02-09T06:09:22.873Z,58.15
2023-02-09T06:11:50.952Z,58.55
2023-02-09T06:14:19.531Z,59.08
2023-02-09T06:16:47.449Z,59.66
2023-02-09T06:19:17.135Z,60.05
2023-02-09T06:21:45.584Z,60.55
2023-02-09T06:24:13.964Z,60.81
2023-02-09T06:26:42.357Z,61.08
2023-02-09T06:29:10.386Z,61.42
2023-02-09T06:31:38.843Z,61.90
2023-02-09T06:34:06.801Z,62.95
2023-02-09T06:36:34.933Z,64.35
2023-02-09T06:39:06.538Z,63.66
2023-02-09T06:41:35.279Z,62.64
2023-02-09T06:44:03.999Z,62.21
2023-02-09T06:46:32.162Z,61.39
2023-02-09T06:49:00.234Z,60.78
2023-02-09T06:51:28.283Z,60.58
2023-02-09T06:53:56.265Z,59.60
2023-02-09T06:56:24.502Z,58.05
2023-02-09T06:58:53.207Z,57.61
2023-02-09T07:01:21.426Z,57.73
2023-02-09T07:03:49.654Z,58.04
2023-02-09T07:06:18.855Z,58.65
2023-02-09T07:08:47.072Z,58.94
2023-02-09T07:11:16.153Z,59.24
2023-02-09T07:13:44.616Z,59.55
2023-02-09T07:16:13.472Z,59.93
2023-02-09T07:18:41.770Z,60.23
2023-02-09T07:21:11.480Z,60.55
2023-02-09T07:23:39.850Z,60.52
2023-02-09T07:57:05.286Z,60.28
2023-02-09T07:59:33.609Z,59.24
2023-02-09T08:02:01.728Z,58.40
2023-02-09T08:04:29.760Z,57.81
2023-02-09T08:06:57.881Z,57.47
2023-02-09T08:09:26.152Z,57.21
2023-02-09T08:11:58.860Z,57.23
2023-02-09T08:14:39.697Z,56.88
2023-02-09T08:17:20.641Z,57.20
2023-02-09T08:20:12.463Z,57.16
2023-02-09T08:22:45.304Z,57.23
2023-02-09T08:25:16.310Z,57.33
2023-02-09T08:27:44.919Z,57.28
2023-02-09T08:30:15.379Z,57.00
2023-02-09T08:32:43.900Z,56.96
2023-02-09T08:35:15.321Z,56.93
2023-02-09T08:37:43.464Z,57.05
2023-02-09T08:40:12.589Z,57.11
2023-02-09T08:42:42.486Z,57.13
2023-02-09T08:45:12.635Z,56.99
2023-02-09T08:47:40.800Z,57.02
2023-02-09T08:50:11.218Z,56.81
2023-02-09T08:52:39.411Z,56.92
2023-02-09T08:55:07.670Z,56.84
2023-02-09T08:57:43.853Z,56.93
2023-02-09T09:00:14.090Z,56.89
2023-02-09T09:02:42.173Z,56.43
2023-02-09T09:05:10.584Z,56.66
2023-02-09T09:07:38.820Z,56.31
2023-02-09T09:10:08.997Z,56.14
2023-02-09T09:12:37.873Z,55.58
2023-02-09T09:15:06.628Z,55.77
2023-02-09T09:17:34.724Z,55.52
2023-02-09T09:20:03.748Z,55.30
2023-02-09T09:22:31.854Z,55.34
2023-02-09T09:24:59.963Z,55.64
2023-02-09T09:27:28.514Z,55.61
2023-02-09T09:29:56.577Z,55.43
2023-02-09T09:32:25.360Z,55.37
2023-02-09T09:34:59.020Z,55.55
2023-02-09T09:37:27.617Z,55.33
2023-02-09T09:39:55.633Z,55.49
2023-02-09T09:42:30.758Z,55.54
2023-02-09T09:44:59.215Z,55.66
2023-02-09T09:47:36.747Z,55.22
2023-02-09T09:50:21.607Z,55.24
2023-02-09T09:53:01.085Z,55.33
2023-02-09T09:55:32.183Z,55.39
2023-02-09T09:58:05.521Z,55.26
2023-02-09T10:00:40.075Z,55.25
2023-02-09T10:03:17.301Z,55.39
2023-02-09T10:05:49.455Z,55.37
2023-02-09T10:08:35.832Z,55.33
2023-02-09T10:11:11.573Z,55.27
2023-02-09T10:13:48.075Z,55.03
2023-02-09T10:19:32.911Z,54.71
2023-02-09T10:22:01.172Z,54.73
2023-02-09T10:24:32.187Z,54.70
2023-02-09T10:27:13.841Z,54.47
2023-02-09T10:29:42.193Z,54.30
2023-02-09T10:32:16.188Z,53.96
2023-02-09T10:34:57.110Z,54.06
2023-02-09T10:37:36.107Z,53.94
2023-02-09T10:40:14.323Z,53.97
2023-02-09T10:42:56.976Z,53.76
2023-02-09T10:45:33.215Z,54.01
2023-02-09T10:48:17.021Z,53.65
2023-02-09T10:51:00.816Z,53.58
2023-02-09T10:53:33.658Z,53.49
2023-02-09T10:56:21.550Z,52.86
2023-02-09T10:58:53.409Z,53.09
2023-02-09T11:01:32.078Z,52.67
2023-02-09T11:04:18.304Z,51.62
2023-02-09T11:06:57.716Z,51.89
2023-02-09T11:09:35.204Z,50.92
2023-02-09T11:12:03.507Z,51.08
2023-02-09T11:14:31.983Z,51.30
2023-02-09T11:17:15.944Z,51.17
2023-02-09T11:20:17.329Z,50.83
2023-02-09T11:23:13.402Z,50.72
2023-02-09T11:25:50.516Z,50.47
2023-02-09T11:28:46.712Z,49.78
2023-02-09T11:31:36.848Z,50.02
2023-02-09T11:34:25.399Z,49.93
2023-02-09T11:37:16.448Z,49.79
2023-02-09T11:39:57.852Z,49.84
2023-02-09T11:42:44.611Z,50.26
2023-02-09T11:45:34.315Z,49.85
2023-02-09T11:48:24.669Z,50.43
2023-02-09T11:51:22.519Z,49.45
2023-02-09T11:54:18.446Z,49.25
2023-02-09T11:56:50.975Z,48.81
2023-02-09T11:59:34.386Z,48.68
2023-02-09T12:02:14.355Z,48.19
2023-02-09T12:04:53.567Z,47.81
2023-02-09T12:07:28.268Z,47.33
2023-02-09T12:10:34.205Z,47.48
2023-02-09T12:13:21.068Z,47.65
2023-02-09T12:15:53.327Z,46.63
2023-02-09T12:18:24.292Z,46.23
2023-02-09T12:20:58.248Z,45.79
2023-02-09T12:23:35.886Z,45.26
2023-02-09T12:26:16.291Z,44.99
2023-02-09T12:29:03.655Z,45.45
2023-02-09T12:32:03.773Z,45.35
2023-02-09T12:34:53.141Z,45.31
2023-02-09T12:37:30.500Z,45.53
2023-02-09T12:40:07.791Z,45.44
2023-02-09T12:43:03.686Z,45.25
2023-02-09T12:45:40.471Z,45.36
2023-02-09T12:48:08.594Z,45.93
2023-02-09T12:50:42.841Z,46.29
2023-02-09T12:53:26.938Z,46.27
2023-02-09T12:56:07.273Z,46.52
2023-02-09T12:58:45.776Z,46.41
2023-02-09T13:01:15.309Z,46.22
2023-02-09T13:04:01.227Z,46.13
2023-02-09T13:06:40.669Z,46.54
2023-02-09T13:09:15.600Z,46.52
2023-02-09T13:11:49.913Z,46.55
2023-02-09T13:14:22.467Z,46.50
2023-02-09T13:17:08.937Z,46.49
2023-02-09T13:19:57.787Z,46.37
2023-02-09T13:22:44.345Z,46.64
2023-02-09T13:25:22.158Z,46.77
2023-02-09T13:27:51.028Z,47.30
2023-02-09T13:30:29.956Z,47.37
2023-02-09T13:33:20.556Z,47.31
2023-02-09T13:36:06.915Z,47.41
2023-02-09T13:38:40.670Z,47.60
2023-02-09T13:41:32.085Z,47.51
2023-02-09T13:44:00.172Z,47.67
2023-02-09T13:46:34.188Z,47.98
2023-02-09T13:49:15.604Z,47.96
2023-02-09T13:51:43.771Z,48.09
2023-02-09T13:54:20.318Z,48.33
2023-02-09T13:56:48.521Z,48.50
2023-02-09T13:59:17.701Z,48.89
2023-02-09T14:01:46.552Z,48.98
2023-02-09T14:04:20.074Z,49.16
2023-02-09T14:07:09.719Z,49.24
2023-02-09T14:09:48.948Z,49.52
2023-02-09T14:12:45.538Z,49.69
2023-02-09T14:15:33.858Z,49.98
2023-02-09T14:18:02.018Z,50.07
2023-02-09T14:20:30.480Z,50.29
2023-02-09T14:23:01.528Z,50.48
2023-02-09T14:25:31.499Z,50.62
2023-02-09T14:28:00.106Z,50.85
2023-02-09T14:30:32.929Z,50.95
2023-02-09T14:33:06.242Z,51.10
2023-02-09T14:35:41.162Z,51.14
2023-02-09T14:38:37.942Z,51.32
2023-02-09T14:41:29.364Z,51.32
2023-02-09T14:44:06.697Z,51.48
2023-02-09T14:47:26.788Z,51.49
2023-02-09T14:49:57.205Z,51.66
2023-02-09T14:52:31.722Z,51.81
2023-02-09T14:55:05.044Z,51.93
2023-02-09T14:57:36.403Z,52.02
2023-02-09T15:00:23.070Z,52.25
2023-02-09T15:02:53.027Z,52.24
2023-02-09T15:05:23.010Z,52.60
2023-02-09T15:08:05.829Z,52.74
2023-02-09T15:10:45.586Z,52.70
2023-02-09T15:13:15.405Z,52.96
2023-02-09T15:15:44.318Z,53.14
2023-02-09T15:18:20.086Z,53.39
2023-02-09T15:20:48.839Z,53.44
2023-02-09T15:23:17.359Z,53.69
2023-02-09T15:25:45.779Z,53.92
2023-02-09T15:28:28.766Z,54.18
2023-02-09T15:30:58.678Z,54.32
2023-02-09T15:33:28.589Z,54.71
2023-02-09T15:35:58.986Z,54.86
2023-02-09T15:38:28.070Z,55.08
2023-02-09T15:41:14.615Z,55.34
2023-02-09T15:44:01.486Z,55.71
2023-02-09T15:46:48.355Z,55.76
2023-02-09T15:49:16.599Z,55.88
2023-02-09T15:51:44.780Z,56.58
2023-02-09T15:54:18.772Z,56.75
2023-02-09T15:56:46.964Z,56.82
2023-02-09T15:59:23.667Z,56.67
2023-02-09T16:01:52.042Z,57.12
2023-02-09T16:04:20.185Z,57.22
2023-02-09T16:06:53.595Z,57.16
2023-02-09T16:09:26.702Z,57.57
2023-02-09T16:11:55.532Z,57.45
2023-02-09T16:14:26.044Z,57.38
2023-02-09T16:16:54.187Z,57.26
2023-02-09T16:19:22.362Z,57.60
2023-02-09T16:21:56.395Z,57.56
2023-02-09T16:24:39.791Z,57.67
2023-02-09T16:27:15.374Z,57.64
2023-02-09T16:29:43.685Z,57.71
2023-02-09T16:32:20.104Z,57.72
2023-02-09T16:34:48.712Z,57.84
2023-02-09T16:37:20.221Z,57.71
2023-02-09T16:39:48.285Z,57.50
2023-02-09T16:42:16.828Z,57.60
2023-02-09T16:44:44.869Z,57.52
2023-02-09T16:47:20.029Z,57.50
2023-02-09T16:50:34.550Z,57.48
2023-02-09T16:53:13.611Z,57.44
2023-02-09T16:55:42.201Z,57.49
2023-02-09T16:58:14.776Z,57.37
2023-02-09T17:00:44.836Z,57.31
2023-02-09T17:03:19.979Z,57.30
2023-02-09T17:05:51.484Z,57.20
2023-02-09T17:08:25.783Z,57.07
2023-02-09T17:10:56.204Z,57.10
2023-02-09T17:13:24.661Z,57.02
2023-02-09T17:15:56.754Z,57.09
2023-02-09T17:18:32.513Z,57.04
2023-02-09T17:21:06.576Z,57.00
2023-02-09T17:23:37.353Z,57.01
2023-02-09T17:26:05.890Z,57.03
2023-02-09T17:28:34.244Z,57.03
2023-02-09T17:31:09.650Z,57.03
2023-02-09T17:33:39.085Z,57.00
2023-02-09T17:36:25.588Z,56.96
2023-02-09T17:38:57.092Z,56.82
2023-02-09T17:41:37.335Z,56.75
2023-02-09T17:44:24.064Z,56.68
2023-02-09T17:47:00.097Z,56.56
2023-02-09T17:49:28.260Z,56.60
2023-02-09T17:51:56.376Z,56.50
2023-02-09T17:54:25.086Z,56.45
2023-02-09T17:56:53.120Z,56.43
2023-02-09T17:59:21.438Z,56.43
2023-02-09T18:01:55.181Z,56.42
2023-02-09T18:04:26.947Z,56.35
2023-02-09T18:06:57.510Z,56.30
2023-02-09T18:09:26.089Z,56.37
2023-02-09T18:12:07.867Z,56.34
2023-02-09T18:14:36.798Z,56.30
2023-02-09T18:17:04.967Z,56.18
2023-02-09T18:19:33.206Z,56.13
2023-02-09T18:22:02.104Z,56.06
2023-02-09T18:24:33.127Z,55.92
2023-02-09T18:27:01.181Z,55.88
2023-02-09T18:29:30.176Z,55.74
2023-02-09T18:32:00.191Z,55.73
2023-02-09T18:34:29.250Z,55.50
2023-02-09T18:36:57.383Z,55.36
2023-02-09T18:39:25.433Z,55.31
2023-02-09T18:41:56.432Z,55.09
2023-02-09T18:44:29.304Z,54.71
2023-02-09T18:47:00.613Z,54.46
2023-02-09T18:49:29.746Z,54.45
2023-02-09T18:51:59.375Z,54.30
2023-02-09T18:54:29.065Z,54.02
2023-02-09T18:56:57.746Z,54.10
2023-02-09T18:59:30.971Z,54.04
2023-02-09T19:02:00.970Z,53.99
2023-02-09T19:04:29.128Z,53.65
2023-02-09T19:06:57.318Z,53.48
2023-02-09T19:09:25.444Z,53.66
2023-02-09T19:11:53.604Z,53.33
2023-02-09T19:14:37.143Z,53.05
2023-02-09T19:17:07.088Z,52.92
2023-02-09T19:19:35.289Z,53.17
2023-02-09T19:22:03.451Z,53.05
2023-02-09T19:24:31.795Z,52.97
2023-02-09T19:26:59.871Z,52.83
2023-02-09T19:29:29.110Z,52.93
2023-02-09T19:31:57.349Z,52.87
2023-02-09T19:34:30.411Z,52.88
2023-02-09T19:36:58.918Z,53.11
2023-02-09T19:39:27.091Z,53.20
2023-02-09T19:41:55.308Z,53.04
2023-02-09T19:44:23.594Z,53.03
2023-02-09T19:46:51.978Z,53.21
2023-02-09T19:49:20.602Z,53.25
2023-02-09T19:51:49.414Z,53.20
2023-02-09T19:54:17.505Z,53.31
2023-02-09T19:56:45.770Z,53.44
2023-02-09T19:59:14.131Z,53.53
2023-02-09T20:01:43.536Z,53.57
2023-02-09T20:04:11.812Z,53.69
2023-02-09T20:06:39.975Z,53.70
2023-02-09T20:09:08.656Z,53.65
2023-02-09T20:11:36.778Z,53.71
2023-02-09T20:14:05.701Z,53.58
2023-02-09T20:16:33.856Z,53.53
2023-02-09T20:19:02.424Z,53.53
2023-02-09T20:21:30.652Z,53.41
2023-02-09T20:23:58.703Z,53.54
2023-02-09T20:26:29.881Z,53.51
2023-02-09T20:28:59.126Z,53.62
2023-02-09T20:31:30.038Z,53.60
2023-02-09T20:33:58.566Z,53.59
2023-02-09T20:36:26.680Z,53.59
2023-02-09T20:38:54.860Z,53.53
2023-02-09T20:41:22.920Z,53.52
2023-02-09T20:44:09.452Z,53.59
2023-02-09T20:46:56.094Z,53.60
2023-02-09T20:49:31.196Z,53.73
2023-02-09T20:51:59.338Z,53.89
2023-02-09T20:54:27.708Z,53.84
2023-02-09T20:56:55.747Z,53.71
2023-02-09T20:59:26.762Z,53.75
2023-02-09T21:01:55.050Z,53.78
2023-02-09T21:04:26.591Z,53.90
2023-02-09T21:06:54.703Z,53.88
2023-02-09T21:09:26.542Z,53.68
2023-02-09T21:11:56.214Z,53.79
2023-02-09T21:14:39.988Z,53.81
2023-02-09T21:17:09.543Z,53.89
2023-02-09T21:19:38.037Z,53.94
2023-02-09T21:22:06.807Z,53.97
2023-02-09T21:24:36.820Z,54.14
2023-02-09T21:27:06.667Z,54.16
2023-02-09T21:29:35.584Z,54.24
2023-02-09T21:32:05.580Z,54.28
2023-02-09T21:34:33.690Z,54.35
2023-02-09T21:37:03.766Z,54.39
2023-02-09T21:39:31.801Z,54.48
2023-02-09T21:42:18.442Z,54.55
2023-02-09T21:44:46.741Z,54.67
2023-02-09T21:47:14.837Z,54.68
2023-02-09T21:49:43.153Z,54.83
2023-02-09T21:52:11.487Z,54.89
2023-02-09T21:54:39.896Z,54.94
2023-02-09T21:57:07.939Z,55.21
2023-02-09T21:59:35.977Z,55.26
2023-02-09T22:02:04.284Z,55.36
2023-02-09T22:04:32.474Z,55.39
2023-02-09T22:07:00.689Z,55.43
2023-02-09T22:09:29.006Z,55.58
2023-02-09T22:11:57.107Z,55.67
2023-02-09T22:14:25.156Z,55.69
2023-02-09T22:16:53.293Z,55.73
2023-02-09T22:19:21.724Z,55.70
2023-02-09T22:21:51.129Z,55.95
2023-02-09T22:24:19.418Z,56.09
2023-02-09T22:26:47.789Z,56.30
2023-02-09T22:29:16.878Z,56.36
2023-02-09T22:31:45.549Z,56.48
2023-02-09T22:34:13.711Z,56.69
2023-02-09T22:36:41.728Z,56.95
2023-02-09T22:39:10.019Z,56.83
2023-02-09T22:41:38.336Z,57.14
2023-02-09T22:44:10.101Z,57.20
2023-02-09T22:46:40.113Z,57.44
2023-02-09T22:49:12.674Z,57.45
2023-02-09T22:51:40.900Z,57.67
2023-02-09T22:54:09.564Z,58.14
2023-02-09T22:56:37.613Z,57.91
2023-02-09T22:59:06.402Z,58.34
2023-02-09T23:01:34.830Z,58.49
2023-02-09T23:04:02.947Z,58.54
2023-02-09T23:06:31.073Z,58.76
2023-02-09T23:09:02.625Z,58.76
2023-02-09T23:11:31.866Z,59.02
2023-02-09T23:14:08.984Z,59.54
2023-02-09T23:16:40.203Z,60.06
2023-02-09T23:19:12.970Z,60.03
2023-02-09T23:21:43.694Z,59.69
2023-02-09T23:24:13.035Z,60.42
2023-02-09T23:26:41.176Z,61.02
2023-02-09T23:29:12.632Z,60.60
2023-02-09T23:31:41.239Z,61.48
2023-02-09T23:34:19.835Z,61.52
2023-02-09T23:36:48.415Z,62.52
2023-02-09T23:39:19.178Z,64.22
2023-02-09T23:41:47.331Z,64.20
2023-02-09T23:44:15.591Z,63.81
2023-02-09T23:46:44.837Z,62.66
2023-02-09T23:49:13.060Z,61.89
2023-02-09T23:51:41.198Z,61.34
2023-02-09T23:54:10.467Z,60.97
2023-02-09T23:56:39.926Z,61.38
2023-02-09T23:59:12.930Z,61.11
